createdAt,value
2022-12-18T00:01:27.170Z,20.33
2022-12-18T00:05:29.071Z,19.63
2022-12-18T00:09:39.311Z,18.17
2022-12-18T00:13:42.670Z,19.80
2022-12-18T00:17:44.855Z,17.67
2022-12-18T00:21:46.689Z,17.73
2022-12-18T00:25:48.581Z,17.83
2022-12-18T00:29:50.539Z,16.33
2022-12-18T00:33:54.189Z,14.73
2022-12-18T00:37:57.403Z,15.13
2022-12-18T00:42:19.428Z,15.20
2022-12-18T00:46:21.299Z,13.60
2022-12-18T00:50:24.526Z,13.27
2022-12-18T00:54:26.450Z,15.80
2022-12-18T00:58:28.270Z,15.20
2022-12-18T01:02:30.266Z,15.50
2022-12-18T01:06:32.300Z,14.47
2022-12-18T01:10:34.369Z,16.07
2022-12-18T01:14:36.303Z,14.37
2022-12-18T01:18:38.231Z,15.13
2022-12-18T01:22:40.290Z,14.50
2022-12-18T01:26:42.219Z,14.93
2022-12-18T01:30:47.186Z,14.40
2022-12-18T01:34:49.086Z,13.10
2022-12-18T01:38:51.167Z,14.13
2022-12-18T01:42:53.615Z,13.67
2022-12-18T01:46:55.716Z,13.37
2022-12-18T01:50:57.648Z,13.60
2022-12-18T01:55:02.968Z,13.53
2022-12-18T01:59:07.034Z,13.20
2022-12-18T02:03:08.959Z,13.00
2022-12-18T02:07:16.475Z,13.50
2022-12-18T02:11:49.449Z,12.60
2022-12-18T02:16:20.509Z,12.30
2022-12-18T02:20:36.229Z,13.63
2022-12-18T02:25:01.686Z,12.27
2022-12-18T02:29:16.142Z,12.33
2022-12-18T02:33:18.121Z,12.00
2022-12-18T02:37:20.117Z,12.13
2022-12-18T02:41:21.994Z,11.87
2022-12-18T02:45:23.954Z,11.77
2022-12-18T02:49:50.871Z,11.40
2022-12-18T02:54:57.875Z,11.37
2022-12-18T02:59:16.732Z,11.10
2022-12-18T03:03:34.414Z,10.70
2022-12-18T03:07:48.400Z,11.03
2022-12-18T03:12:21.391Z,9.83
2022-12-18T03:16:36.475Z,10.80
2022-12-18T03:20:44.380Z,10.40
2022-12-18T03:24:47.482Z,9.50
2022-12-18T03:29:09.129Z,9.53
2022-12-18T03:33:20.995Z,9.20
2022-12-18T03:37:22.812Z,8.53
2022-12-18T03:41:34.044Z,8.73
2022-12-18T03:45:44.088Z,8.43
2022-12-18T03:50:01.071Z,9.00
2022-12-18T03:54:04.990Z,7.77
2022-12-18T03:58:07.410Z,9.30
2022-12-18T04:02:09.285Z,8.30
2022-12-18T04:06:11.165Z,8.53
2022-12-18T04:10:16.114Z,8.93
2022-12-18T04:14:18.605Z,7.70
2022-12-18T04:18:20.769Z,7.93
2022-12-18T04:22:22.694Z,8.33
2022-12-18T04:26:24.616Z,8.00
2022-12-18T04:30:26.409Z,7.70
2022-12-18T04:34:28.277Z,8.33
2022-12-18T04:38:30.098Z,7.90
2022-12-18T04:42:31.912Z,7.90
2022-12-18T04:46:33.922Z,7.80
2022-12-18T04:50:35.845Z,8.10
2022-12-18T04:54:37.679Z,8.30
2022-12-18T04:58:41.007Z,7.20
2022-12-18T05:02:43.129Z,7.20
2022-12-18T05:06:44.983Z,7.07
2022-12-18T05:10:46.817Z,6.97
2022-12-18T05:14:48.615Z,7.57
2022-12-18T05:18:50.425Z,6.53
2022-12-18T05:22:52.709Z,5.90
2022-12-18T05:26:54.559Z,6.37
2022-12-18T05:30:59.909Z,6.60
2022-12-18T05:35:01.819Z,6.33
2022-12-18T05:39:03.907Z,6.13
2022-12-18T05:43:06.217Z,6.50
2022-12-18T05:47:08.006Z,6.03
2022-12-18T05:51:17.245Z,6.17
2022-12-18T05:55:19.036Z,6.70
2022-12-18T05:59:21.200Z,6.80
2022-12-18T06:03:23.157Z,6.87
2022-12-18T06:07:25.161Z,7.83
2022-12-18T06:11:27.456Z,15.47
2022-12-18T06:15:29.231Z,22.63
2022-12-18T06:19:31.037Z,11.50
2022-12-18T06:23:32.842Z,9.37
2022-12-18T06:27:34.649Z,8.77
2022-12-18T06:31:36.517Z,7.40
2022-12-18T06:35:38.430Z,7.47
2022-12-18T06:39:40.314Z,7.93
2022-12-18T06:43:50.589Z,8.07
2022-12-18T06:47:52.998Z,8.53
2022-12-18T06:51:55.514Z,8.03
2022-12-18T06:56:11.100Z,7.23
2022-12-18T07:00:29.224Z,8.17
2022-12-18T07:04:31.107Z,8.53
2022-12-18T07:08:33.365Z,8.37
2022-12-18T07:12:35.302Z,7.60
2022-12-18T07:16:37.202Z,8.33
2022-12-18T07:20:39.032Z,8.23
2022-12-18T07:24:40.896Z,8.20
2022-12-18T07:28:42.898Z,8.80
2022-12-18T07:32:44.977Z,14.57
2022-12-18T07:36:46.806Z,11.23
2022-12-18T07:40:48.761Z,10.97
2022-12-18T07:44:53.198Z,8.97
2022-12-18T07:48:55.088Z,8.87
2022-12-18T07:53:01.183Z,9.03
2022-12-18T07:57:09.936Z,9.37
2022-12-18T08:01:23.469Z,9.27
2022-12-18T08:05:25.961Z,10.27
2022-12-18T08:09:28.211Z,9.97
2022-12-18T08:13:30.098Z,10.00
2022-12-18T08:17:31.896Z,10.33
2022-12-18T08:21:33.837Z,11.03
2022-12-18T08:25:35.629Z,11.83
2022-12-18T08:29:37.388Z,10.40
2022-12-18T08:33:40.337Z,11.27
2022-12-18T08:37:43.405Z,10.73
2022-12-18T08:42:10.086Z,11.13
2022-12-18T08:46:13.061Z,11.37
2022-12-18T08:50:15.720Z,11.80
2022-12-18T08:54:19.903Z,11.40
2022-12-18T08:58:21.933Z,11.57
2022-12-18T09:02:23.855Z,11.63
2022-12-18T09:06:27.523Z,12.60
2022-12-18T09:10:29.391Z,9.37
2022-12-18T09:14:31.268Z,10.53
2022-12-18T09:18:33.349Z,9.90
2022-12-18T09:22:35.467Z,10.67
2022-12-18T09:26:37.947Z,11.03
2022-12-18T09:30:49.519Z,10.80
2022-12-18T09:34:51.559Z,10.30
2022-12-18T09:38:54.357Z,11.43
2022-12-18T09:43:01.387Z,10.37
2022-12-18T09:47:31.874Z,11.27
2022-12-18T09:51:46.509Z,10.53
2022-12-18T09:55:48.970Z,10.90
2022-12-18T10:00:19.627Z,11.37
2022-12-18T10:04:21.574Z,11.60
2022-12-18T10:08:38.660Z,12.97
2022-12-18T10:13:04.147Z,11.87
2022-12-18T10:17:21.489Z,11.33
2022-12-18T10:21:48.471Z,12.33
2022-12-18T10:26:02.249Z,12.83
2022-12-18T10:30:14.363Z,11.67
2022-12-18T10:34:19.427Z,13.20
2022-12-18T10:38:32.868Z,11.33
2022-12-18T10:42:35.097Z,13.03
2022-12-18T10:46:41.977Z,11.67
2022-12-18T10:55:17.413Z,11.50
2022-12-18T10:59:23.945Z,11.90
2022-12-18T11:03:39.295Z,11.37
2022-12-18T11:07:51.691Z,11.33
2022-12-18T11:12:21.539Z,11.97
2022-12-18T11:17:32.417Z,11.80
2022-12-18T11:21:43.180Z,12.33
2022-12-18T11:26:06.608Z,12.47
2022-12-18T11:30:21.132Z,12.30
2022-12-18T11:34:42.617Z,11.93
2022-12-18T11:38:44.766Z,10.87
2022-12-18T11:43:12.308Z,11.67
2022-12-18T11:48:03.335Z,12.60
2022-12-18T11:52:25.561Z,12.07
2022-12-18T11:56:37.663Z,11.80
2022-12-18T12:00:50.499Z,11.77
2022-12-18T12:05:03.094Z,11.50
2022-12-18T12:09:28.941Z,11.50
2022-12-18T12:14:35.356Z,10.47
2022-12-18T12:18:45.689Z,11.50
2022-12-18T12:22:59.613Z,11.97
2022-12-18T12:27:27.832Z,11.87
2022-12-18T12:31:40.575Z,10.93
2022-12-18T12:36:16.280Z,12.10
2022-12-18T12:40:50.233Z,11.13
2022-12-18T12:44:56.523Z,10.77
2022-12-18T12:49:05.214Z,11.47
2022-12-18T12:53:18.155Z,10.80
2022-12-18T12:57:36.526Z,10.93
2022-12-18T13:02:35.273Z,10.27
2022-12-18T13:07:23.097Z,11.00
2022-12-18T13:12:00.768Z,9.87
2022-12-18T13:16:07.658Z,10.50
2022-12-18T13:20:15.646Z,10.83
2022-12-18T13:24:29.284Z,10.40
2022-12-18T13:28:34.409Z,11.10
2022-12-18T13:32:36.235Z,10.90
2022-12-18T13:36:38.886Z,10.33
2022-12-18T13:40:40.904Z,11.60
2022-12-18T13:44:45.790Z,10.13
2022-12-18T13:49:07.524Z,12.60
2022-12-18T13:53:24.835Z,11.10
2022-12-18T13:57:30.714Z,10.67
2022-12-18T14:01:32.758Z,11.33
2022-12-18T14:05:37.222Z,10.67
2022-12-18T14:09:50.234Z,11.53
2022-12-18T14:13:52.321Z,11.07
2022-12-18T14:18:16.867Z,11.87
2022-12-18T14:22:21.561Z,9.73
2022-12-18T14:26:30.927Z,9.53
2022-12-18T14:30:43.545Z,10.43
2022-12-18T14:34:47.051Z,9.97
2022-12-18T14:38:54.820Z,9.67
2022-12-18T14:42:59.654Z,9.30
2022-12-18T14:47:02.194Z,9.37
2022-12-18T14:51:25.379Z,9.30
2022-12-18T14:55:29.755Z,12.13
2022-12-18T14:59:33.658Z,8.93
2022-12-18T15:03:38.868Z,9.23
2022-12-18T15:07:55.064Z,10.20
2022-12-18T15:11:58.977Z,14.30
2022-12-18T15:16:03.974Z,14.27
2022-12-18T15:20:11.109Z,13.27
2022-12-18T15:24:25.368Z,12.97
2022-12-18T15:28:52.432Z,13.17
2022-12-18T15:33:16.827Z,14.50
2022-12-18T15:37:18.607Z,14.80
2022-12-18T15:41:24.720Z,13.90
2022-12-18T15:45:26.842Z,13.50
2022-12-18T15:49:28.730Z,13.60
2022-12-18T15:53:32.992Z,13.33
2022-12-18T15:57:34.852Z,14.57
2022-12-18T16:01:42.151Z,13.53
2022-12-18T16:05:44.584Z,14.57
2022-12-18T16:09:47.124Z,15.03
2022-12-18T16:13:48.924Z,13.13
2022-12-18T16:17:53.006Z,13.80
2022-12-18T16:21:56.622Z,13.60
2022-12-18T16:25:59.166Z,14.77
2022-12-18T16:30:01.128Z,14.80
2022-12-18T16:34:28.862Z,14.63
2022-12-18T16:38:30.971Z,15.13
2022-12-18T16:42:32.816Z,13.37
2022-12-18T16:46:34.771Z,14.60
2022-12-18T16:50:36.617Z,14.97
2022-12-18T16:54:38.572Z,14.53
2022-12-18T16:58:40.551Z,14.50
2022-12-18T17:02:44.656Z,15.17
2022-12-18T17:06:51.771Z,13.90
2022-12-18T17:10:53.607Z,14.60
2022-12-18T17:14:55.489Z,14.27
2022-12-18T17:18:57.284Z,14.73
2022-12-18T17:22:59.113Z,14.77
2022-12-18T17:27:04.029Z,14.07
2022-12-18T17:31:20.664Z,14.27
2022-12-18T17:35:22.514Z,14.60
2022-12-18T17:39:31.391Z,13.80
2022-12-18T17:43:45.719Z,14.33
2022-12-18T17:47:58.265Z,14.17
2022-12-18T17:52:01.911Z,13.50
2022-12-18T17:56:06.180Z,14.30
2022-12-18T18:00:11.551Z,14.73
2022-12-18T18:04:15.453Z,13.57
2022-12-18T18:08:20.908Z,14.33
2022-12-18T18:12:41.944Z,14.30
2022-12-18T18:16:47.703Z,13.67
2022-12-18T18:20:52.084Z,13.13
2022-12-18T18:25:01.957Z,12.77
2022-12-18T18:33:28.575Z,12.97
2022-12-18T18:37:30.693Z,12.27
2022-12-18T18:41:32.699Z,12.23
2022-12-18T18:45:34.790Z,11.97
2022-12-18T18:49:36.715Z,12.97
2022-12-18T18:53:43.384Z,8.50
2022-12-18T18:57:47.668Z,7.93
2022-12-18T19:01:52.988Z,8.20
2022-12-18T19:05:58.315Z,8.20
2022-12-18T19:10:04.693Z,9.03
2022-12-18T19:14:08.804Z,8.53
2022-12-18T19:18:10.656Z,9.37
2022-12-18T19:22:12.971Z,8.63
2022-12-18T19:26:27.473Z,8.83
2022-12-18T19:30:30.343Z,8.50
2022-12-18T19:34:32.238Z,8.10
2022-12-18T19:38:34.298Z,8.40
2022-12-18T19:42:38.893Z,8.13
2022-12-18T19:46:42.322Z,9.30
2022-12-18T19:50:44.624Z,8.80
2022-12-18T19:54:47.500Z,8.40
2022-12-18T19:58:49.427Z,9.43
2022-12-18T20:03:00.119Z,9.47
2022-12-18T20:07:08.461Z,8.30
2022-12-18T20:11:10.562Z,8.40
2022-12-18T20:15:12.582Z,8.20
2022-12-18T20:19:14.719Z,8.43
2022-12-18T20:23:18.555Z,6.97
2022-12-18T20:27:23.395Z,8.63
2022-12-18T20:31:26.325Z,7.77
2022-12-18T20:35:34.846Z,8.00
2022-12-18T20:39:38.252Z,9.47
2022-12-18T20:43:41.191Z,8.93
2022-12-18T20:47:43.463Z,8.60
2022-12-18T20:51:45.400Z,9.27
2022-12-18T20:55:50.420Z,9.00
2022-12-18T20:59:52.414Z,9.07
2022-12-18T21:03:54.498Z,8.60
2022-12-18T21:07:56.324Z,8.23
2022-12-18T21:12:17.007Z,8.83
2022-12-18T21:16:19.002Z,8.60
2022-12-18T21:20:21.565Z,7.47
2022-12-18T21:24:23.705Z,8.37
2022-12-18T21:28:25.519Z,8.63
2022-12-18T21:32:28.462Z,8.87
2022-12-18T21:36:36.753Z,8.73
2022-12-18T21:40:39.553Z,8.43
2022-12-18T21:44:42.601Z,8.40
2022-12-18T21:48:45.908Z,8.13
2022-12-18T21:52:48.030Z,9.13
2022-12-18T21:56:56.810Z,9.23
2022-12-18T22:00:58.766Z,9.00
2022-12-18T22:05:02.040Z,9.97
2022-12-18T22:09:05.020Z,10.07
2022-12-18T22:13:08.533Z,9.73
2022-12-18T22:17:11.923Z,10.33
2022-12-18T22:21:48.230Z,10.10
2022-12-18T22:25:50.042Z,10.97
2022-12-18T22:30:04.112Z,11.80
2022-12-18T22:34:06.242Z,11.60
2022-12-18T22:38:08.044Z,11.57
2022-12-18T22:42:09.809Z,10.30
2022-12-18T22:46:24.865Z,10.63
2022-12-18T22:50:27.030Z,11.23
2022-12-18T22:54:28.801Z,11.17
2022-12-18T22:58:30.582Z,11.27
2022-12-18T23:02:32.532Z,10.47
2022-12-18T23:06:34.419Z,11.43
2022-12-18T23:10:39.811Z,12.37
2022-12-18T23:14:41.602Z,11.40
2022-12-18T23:18:43.817Z,11.30
2022-12-18T23:22:45.638Z,10.17
2022-12-18T23:26:47.415Z,9.53
2022-12-18T23:30:49.281Z,12.27
2022-12-18T23:34:51.211Z,11.63
2022-12-18T23:38:55.688Z,11.43
2022-12-18T23:42:58.915Z,11.73
2022-12-18T23:47:00.890Z,11.80
2022-12-18T23:51:10.855Z,11.60
2022-12-18T23:55:12.637Z,12.27
2022-12-18T23:59:14.408Z,13.23
